sensor_id;sensor_type;location;lat;lon;timestamp;pressure;altitude;pressure_sealevel;temperature;humidity
83424;BME280;73355;49.044;8.686;2023-12-29T00:00:40;99679.97;;;11.69;67.43
83424;BME280;73355;49.044;8.686;2023-12-29T00:03:05;99670.41;;;11.57;67.32
83424;BME280;73355;49.044;8.686;2023-12-29T00:05:31;99678.22;;;11.55;67.28
83424;BME280;73355;49.044;8.686;2023-12-29T00:07:56;99678.25;;;11.52;67.92
83424;BME280;73355;49.044;8.686;2023-12-29T00:10:21;99682.13;;;11.54;67.51
83424;BME280;73355;49.044;8.686;2023-12-29T00:12:47;99691.09;;;11.55;67.45
83424;BME280;73355;49.044;8.686;2023-12-29T00:15:12;99687.59;;;11.54;67.62
83424;BME280;73355;49.044;8.686;2023-12-29T00:17:37;99693.75;;;11.58;67.74
83424;BME280;73355;49.044;8.686;2023-12-29T00:20:06;99691.03;;;11.58;67.43
83424;BME280;73355;49.044;8.686;2023-12-29T00:22:33;99701.69;;;11.46;67.82
83424;BME280;73355;49.044;8.686;2023-12-29T00:24:58;99694.75;;;11.41;68.04
83424;BME280;73355;49.044;8.686;2023-12-29T00:27:24;99694.38;;;11.39;68.31
83424;BME280;73355;49.044;8.686;2023-12-29T00:29:49;99692.13;;;11.34;68.18
83424;BME280;73355;49.044;8.686;2023-12-29T00:32:14;99700.72;;;11.33;68.59
83424;BME280;73355;49.044;8.686;2023-12-29T00:34:40;99687.50;;;11.31;68.45
83424;BME280;73355;49.044;8.686;2023-12-29T00:37:05;99691.41;;;11.30;69.06
83424;BME280;73355;49.044;8.686;2023-12-29T00:39:31;99687.22;;;11.22;69.55
83424;BME280;73355;49.044;8.686;2023-12-29T00:42:04;99687.25;;;11.18;69.76
83424;BME280;73355;49.044;8.686;2023-12-29T00:44:29;99686.16;;;11.12;70.11
83424;BME280;73355;49.044;8.686;2023-12-29T00:46:55;99685.06;;;11.10;69.96
83424;BME280;73355;49.044;8.686;2023-12-29T00:49:20;99687.41;;;11.08;70.47
83424;BME280;73355;49.044;8.686;2023-12-29T00:51:47;99681.56;;;11.06;70.14
83424;BME280;73355;49.044;8.686;2023-12-29T00:54:12;99681.56;;;11.06;70.00
83424;BME280;73355;49.044;8.686;2023-12-29T00:56:38;99678.44;;;11.07;70.27
83424;BME280;73355;49.044;8.686;2023-12-29T00:59:03;99677.66;;;11.10;70.24
83424;BME280;73355;49.044;8.686;2023-12-29T01:01:33;99675.66;;;11.14;70.12
83424;BME280;73355;49.044;8.686;2023-12-29T01:03:59;99671.38;;;11.13;69.56
83424;BME280;73355;49.044;8.686;2023-12-29T01:06:24;99672.47;;;11.19;69.54
83424;BME280;73355;49.044;8.686;2023-12-29T01:08:49;99665.94;;;11.13;69.74
83424;BME280;73355;49.044;8.686;2023-12-29T01:11:14;99658.97;;;11.09;70.08
83424;BME280;73355;49.044;8.686;2023-12-29T01:13:40;99645.38;;;11.09;69.87
83424;BME280;73355;49.044;8.686;2023-12-29T01:16:05;99648.13;;;11.05;70.17
83424;BME280;73355;49.044;8.686;2023-12-29T01:18:31;99654.75;;;11.04;70.06
83424;BME280;73355;49.044;8.686;2023-12-29T01:20:57;99648.94;;;11.02;70.29
83424;BME280;73355;49.044;8.686;2023-12-29T01:23:22;99654.75;;;11.04;70.16
83424;BME280;73355;49.044;8.686;2023-12-29T01:25:48;99648.56;;;11.00;70.12
83424;BME280;73355;49.044;8.686;2023-12-29T01:28:13;99657.13;;;11.02;70.21
83424;BME280;73355;49.044;8.686;2023-12-29T01:30:38;99674.94;;;11.07;70.05
83424;BME280;73355;49.044;8.686;2023-12-29T01:33:04;99673.38;;;11.09;69.80
83424;BME280;73355;49.044;8.686;2023-12-29T01:35:29;99669.50;;;11.07;69.79
83424;BME280;73355;49.044;8.686;2023-12-29T01:37:54;99659.75;;;11.09;69.78
83424;BME280;73355;49.044;8.686;2023-12-29T01:40:22;99666.75;;;11.10;69.74
83424;BME280;73355;49.044;8.686;2023-12-29T01:42:49;99660.94;;;11.08;69.54
83424;BME280;73355;49.044;8.686;2023-12-29T01:45:22;99659.75;;;11.09;69.67
83424;BME280;73355;49.044;8.686;2023-12-29T01:47:49;99662.81;;;11.11;69.26
83424;BME280;73355;49.044;8.686;2023-12-29T01:50:16;99660.88;;;11.12;69.42
83424;BME280;73355;49.044;8.686;2023-12-29T01:52:43;99660.53;;;11.10;69.37
83424;BME280;73355;49.044;8.686;2023-12-29T01:55:12;99673.00;;;11.07;69.36
83424;BME280;73355;49.044;8.686;2023-12-29T01:57:40;99671.78;;;11.12;69.33
83424;BME280;73355;49.044;8.686;2023-12-29T02:00:06;99667.50;;;11.11;69.41
83424;BME280;73355;49.044;8.686;2023-12-29T02:02:32;99666.00;;;11.06;69.29
83424;BME280;73355;49.044;8.686;2023-12-29T02:04:57;99655.84;;;11.10;69.20
83424;BME280;73355;49.044;8.686;2023-12-29T02:07:23;99643.44;;;11.06;69.46
83424;BME280;73355;49.044;8.686;2023-12-29T02:09:49;99654.31;;;11.09;69.45
83424;BME280;73355;49.044;8.686;2023-12-29T02:12:17;99652.75;;;11.08;69.38
83424;BME280;73355;49.044;8.686;2023-12-29T02:14:42;99647.31;;;11.08;69.15
83424;BME280;73355;49.044;8.686;2023-12-29T02:17:16;99634.00;;;11.14;69.36
83424;BME280;73355;49.044;8.686;2023-12-29T02:19:47;99632.09;;;11.11;69.06
83424;BME280;73355;49.044;8.686;2023-12-29T02:22:14;99641.47;;;11.10;69.32
83424;BME280;73355;49.044;8.686;2023-12-29T02:24:45;99633.63;;;11.12;69.18
83424;BME280;73355;49.044;8.686;2023-12-29T02:30:08;99629.03;;;11.05;69.62
83424;BME280;73355;49.044;8.686;2023-12-29T02:32:36;99619.69;;;11.06;69.64
83424;BME280;73355;49.044;8.686;2023-12-29T02:35:04;99632.16;;;11.07;69.57
83424;BME280;73355;49.044;8.686;2023-12-29T02:37:33;99618.47;;;11.11;69.60
83424;BME280;73355;49.044;8.686;2023-12-29T02:40:01;99618.13;;;11.09;69.52
83424;BME280;73355;49.044;8.686;2023-12-29T02:42:26;99626.63;;;11.11;69.79
83424;BME280;73355;49.044;8.686;2023-12-29T02:44:52;99616.53;;;11.11;69.83
83424;BME280;73355;49.044;8.686;2023-12-29T02:47:17;99614.94;;;11.14;69.53
83424;BME280;73355;49.044;8.686;2023-12-29T02:49:44;99605.69;;;11.08;69.80
83424;BME280;73355;49.044;8.686;2023-12-29T02:52:09;99600.59;;;11.10;69.78
83424;BME280;73355;49.044;8.686;2023-12-29T02:54:35;99597.06;;;11.13;70.02
83424;BME280;73355;49.044;8.686;2023-12-29T02:57:00;99588.72;;;11.24;69.64
83424;BME280;73355;49.044;8.686;2023-12-29T02:59:25;99598.06;;;11.23;69.92
83424;BME280;73355;49.044;8.686;2023-12-29T03:01:51;99583.75;;;11.18;69.62
83424;BME280;73355;49.044;8.686;2023-12-29T03:04:16;99588.41;;;11.18;69.85
83424;BME280;73355;49.044;8.686;2023-12-29T03:06:42;99586.09;;;11.16;70.08
83424;BME280;73355;49.044;8.686;2023-12-29T03:09:08;99591.91;;;11.18;70.11
83424;BME280;73355;49.044;8.686;2023-12-29T03:11:33;99582.63;;;11.16;70.10
83424;BME280;73355;49.044;8.686;2023-12-29T03:13:58;99596.25;;;11.16;70.38
83424;BME280;73355;49.044;8.686;2023-12-29T03:16:24;99593.47;;;11.19;70.18
83424;BME280;73355;49.044;8.686;2023-12-29T03:18:49;99600.47;;;11.21;70.10
83424;BME280;73355;49.044;8.686;2023-12-29T03:21:14;99594.56;;;11.22;70.31
83424;BME280;73355;49.044;8.686;2023-12-29T03:23:40;99599.22;;;11.25;70.20
83424;BME280;73355;49.044;8.686;2023-12-29T03:26:05;99610.84;;;11.29;70.58
83424;BME280;73355;49.044;8.686;2023-12-29T03:28:30;99604.63;;;11.29;70.21
83424;BME280;73355;49.044;8.686;2023-12-29T03:30:56;99601.88;;;11.29;70.02
83424;BME280;73355;49.044;8.686;2023-12-29T03:33:21;99608.47;;;11.31;70.14
83424;BME280;73355;49.044;8.686;2023-12-29T03:35:46;99597.59;;;11.31;70.09
83424;BME280;73355;49.044;8.686;2023-12-29T03:38:13;99602.63;;;11.33;70.21
83424;BME280;73355;49.044;8.686;2023-12-29T03:40:39;99602.19;;;11.34;70.14
83424;BME280;73355;49.044;8.686;2023-12-29T03:43:05;99605.69;;;11.35;70.21
83424;BME280;73355;49.044;8.686;2023-12-29T03:45:30;99596.81;;;11.31;70.86
83424;BME280;73355;49.044;8.686;2023-12-29T03:47:55;99592.91;;;11.32;70.62
83424;BME280;73355;49.044;8.686;2023-12-29T03:50:21;99597.53;;;11.35;70.44
83424;BME280;73355;49.044;8.686;2023-12-29T03:52:47;99597.53;;;11.35;70.66
83424;BME280;73355;49.044;8.686;2023-12-29T03:55:12;99593.22;;;11.37;70.80
83424;BME280;73355;49.044;8.686;2023-12-29T03:57:38;99590.53;;;11.34;71.04
83424;BME280;73355;49.044;8.686;2023-12-29T04:00:04;99585.50;;;11.32;71.28
83424;BME280;73355;49.044;8.686;2023-12-29T04:02:29;99585.97;;;11.27;71.54
83424;BME280;73355;49.044;8.686;2023-12-29T04:04:55;99581.72;;;11.23;71.62
83424;BME280;73355;49.044;8.686;2023-12-29T04:07:20;99580.97;;;11.22;71.64
83424;BME280;73355;49.044;8.686;2023-12-29T04:09:45;99577.13;;;11.19;71.57
83424;BME280;73355;49.044;8.686;2023-12-29T04:12:11;99589.91;;;11.23;71.75
83424;BME280;73355;49.044;8.686;2023-12-29T04:14:36;99588.78;;;11.20;72.03
83424;BME280;73355;49.044;8.686;2023-12-29T04:17:01;99592.22;;;11.24;71.97
83424;BME280;73355;49.044;8.686;2023-12-29T04:19:28;99581.31;;;11.24;71.84
83424;BME280;73355;49.044;8.686;2023-12-29T04:21:54;99591.81;;;11.26;71.94
83424;BME280;73355;49.044;8.686;2023-12-29T04:24:19;99589.50;;;11.24;72.00
83424;BME280;73355;49.044;8.686;2023-12-29T04:26:44;99587.56;;;11.25;72.11
83424;BME280;73355;49.044;8.686;2023-12-29T04:29:10;99585.59;;;11.25;72.05
83424;BME280;73355;49.044;8.686;2023-12-29T04:31:35;99593.72;;;11.29;71.89
83424;BME280;73355;49.044;8.686;2023-12-29T04:34:00;99592.59;;;11.26;71.86
83424;BME280;73355;49.044;8.686;2023-12-29T04:36:26;99600.78;;;11.26;71.96
83424;BME280;73355;49.044;8.686;2023-12-29T04:38:51;99606.56;;;11.28;72.09
83424;BME280;73355;49.044;8.686;2023-12-29T04:41:16;99605.44;;;11.26;72.14
83424;BME280;73355;49.044;8.686;2023-12-29T04:43:41;99609.72;;;11.27;72.02
83424;BME280;73355;49.044;8.686;2023-12-29T04:46:07;99609.34;;;11.25;72.17
83424;BME280;73355;49.044;8.686;2023-12-29T04:48:32;99603.09;;;11.28;72.11
83424;BME280;73355;49.044;8.686;2023-12-29T04:50:57;99594.84;;;11.31;71.85
83424;BME280;73355;49.044;8.686;2023-12-29T04:53:23;99592.13;;;11.31;72.05
83424;BME280;73355;49.044;8.686;2023-12-29T04:55:48;99594.09;;;11.31;71.90
83424;BME280;73355;49.044;8.686;2023-12-29T04:58:13;99595.66;;;11.28;72.04
83424;BME280;73355;49.044;8.686;2023-12-29T05:00:39;99595.66;;;11.28;72.01
83424;BME280;73355;49.044;8.686;2023-12-29T05:03:04;99603.09;;;11.28;71.98
83424;BME280;73355;49.044;8.686;2023-12-29T05:05:30;99609.72;;;11.27;72.20
83424;BME280;73355;49.044;8.686;2023-12-29T05:07:55;99607.03;;;11.23;72.33
83424;BME280;73355;49.044;8.686;2023-12-29T05:10:21;99610.91;;;11.26;72.31
83424;BME280;73355;49.044;8.686;2023-12-29T05:12:46;99604.28;;;11.23;72.10
83424;BME280;73355;49.044;8.686;2023-12-29T05:15:11;99607.44;;;11.22;72.43
83424;BME280;73355;49.044;8.686;2023-12-29T05:17:37;99608.72;;;11.13;72.91
83424;BME280;73355;49.044;8.686;2023-12-29T05:20:05;99615.41;;;11.09;73.16
83424;BME280;73355;49.044;8.686;2023-12-29T05:22:31;99618.28;;;10.95;73.23
83424;BME280;73355;49.044;8.686;2023-12-29T05:24:56;99612.91;;;10.91;73.91
83424;BME280;73355;49.044;8.686;2023-12-29T05:27:25;99612.97;;;10.84;74.48
83424;BME280;73355;49.044;8.686;2023-12-29T05:29:50;99620.03;;;10.82;74.78
83424;BME280;73355;49.044;8.686;2023-12-29T05:32:15;99611.53;;;10.76;75.21
83424;BME280;73355;49.044;8.686;2023-12-29T05:34:41;99603.31;;;10.80;75.53
83424;BME280;73355;49.044;8.686;2023-12-29T05:37:06;99601.81;;;10.75;75.58
83424;BME280;73355;49.044;8.686;2023-12-29T05:39:31;99608.06;;;10.72;75.56
83424;BME280;73355;49.044;8.686;2023-12-29T05:41:56;99612.72;;;10.71;75.55
83424;BME280;73355;49.044;8.686;2023-12-29T05:44:22;99610.00;;;10.71;75.77
83424;BME280;73355;49.044;8.686;2023-12-29T05:46:47;99608.50;;;10.70;75.85
83424;BME280;73355;49.044;8.686;2023-12-29T05:49:13;99608.06;;;10.72;75.75
83424;BME280;73355;49.044;8.686;2023-12-29T05:51:38;99603.31;;;10.80;75.52
83424;BME280;73355;49.044;8.686;2023-12-29T05:54:03;99592.06;;;10.77;75.75
83424;BME280;73355;49.044;8.686;2023-12-29T05:56:29;99599.03;;;10.82;75.34
83424;BME280;73355;49.044;8.686;2023-12-29T05:58:54;99599.81;;;10.79;75.13
83424;BME280;73355;49.044;8.686;2023-12-29T06:01:19;99589.31;;;10.77;75.73
83424;BME280;73355;49.044;8.686;2023-12-29T06:03:45;99599.03;;;10.78;75.09
83424;BME280;73355;49.044;8.686;2023-12-29T06:06:10;99584.25;;;10.80;75.15
83424;BME280;73355;49.044;8.686;2023-12-29T06:08:36;99596.69;;;10.81;75.08
83424;BME280;73355;49.044;8.686;2023-12-29T06:11:02;99593.97;;;10.81;74.78
83424;BME280;73355;49.044;8.686;2023-12-29T06:13:28;99596.31;;;10.78;74.68
83424;BME280;73355;49.044;8.686;2023-12-29T06:15:54;99603.25;;;10.83;74.77
83424;BME280;73355;49.044;8.686;2023-12-29T06:18:19;99610.22;;;10.88;74.50
83424;BME280;73355;49.044;8.686;2023-12-29T06:20:45;99594.25;;;10.90;74.17
83424;BME280;73355;49.044;8.686;2023-12-29T06:23:10;99596.50;;;10.95;74.08
83424;BME280;73355;49.044;8.686;2023-12-29T06:25:35;99601.50;;;11.00;73.94
83424;BME280;73355;49.044;8.686;2023-12-29T06:28:01;99593.78;;;10.95;73.74
83424;BME280;73355;49.044;8.686;2023-12-29T06:30:28;99593.31;;;11.00;73.71
83424;BME280;73355;49.044;8.686;2023-12-29T06:32:54;99590.97;;;11.02;73.42
83424;BME280;73355;49.044;8.686;2023-12-29T06:35:19;99593.63;;;11.05;73.29
83424;BME280;73355;49.044;8.686;2023-12-29T06:37:45;99597.50;;;11.08;73.30
83424;BME280;73355;49.044;8.686;2023-12-29T06:40:10;99589.28;;;11.11;73.17
83424;BME280;73355;49.044;8.686;2023-12-29T06:42:36;99586.22;;;11.09;73.06
83424;BME280;73355;49.044;8.686;2023-12-29T06:45:01;99593.63;;;11.05;73.20
83424;BME280;73355;49.044;8.686;2023-12-29T06:47:27;99592.47;;;11.06;73.10
83424;BME280;73355;49.044;8.686;2023-12-29T06:49:52;99593.94;;;11.11;72.72
83424;BME280;73355;49.044;8.686;2023-12-29T06:52:18;99590.09;;;11.08;72.87
83424;BME280;73355;49.044;8.686;2023-12-29T06:54:43;99588.09;;;11.12;72.99
83424;BME280;73355;49.044;8.686;2023-12-29T06:57:08;99586.63;;;11.08;72.98
83424;BME280;73355;49.044;8.686;2023-12-29T06:59:34;99587.00;;;11.06;73.14
83424;BME280;73355;49.044;8.686;2023-12-29T07:01:59;99581.16;;;11.08;73.20
83424;BME280;73355;49.044;8.686;2023-12-29T07:04:25;99585.06;;;11.07;72.76
83424;BME280;73355;49.044;8.686;2023-12-29T07:06:50;99581.22;;;11.04;73.12
83424;BME280;73355;49.044;8.686;2023-12-29T07:09:15;99588.50;;;11.11;72.88
83424;BME280;73355;49.044;8.686;2023-12-29T07:11:41;99581.47;;;11.13;72.51
83424;BME280;73355;49.044;8.686;2023-12-29T07:14:06;99589.75;;;11.06;72.43
83424;BME280;73355;49.044;8.686;2023-12-29T07:16:32;99582.75;;;11.05;72.73
83424;BME280;73355;49.044;8.686;2023-12-29T07:18:57;99576.97;;;11.00;72.78
83424;BME280;73355;49.044;8.686;2023-12-29T07:21:22;99581.31;;;10.97;72.83
83424;BME280;73355;49.044;8.686;2023-12-29T07:23:48;99577.75;;;11.00;72.72
83424;BME280;73355;49.044;8.686;2023-12-29T07:26:13;99572.28;;;11.04;72.84
83424;BME280;73355;49.044;8.686;2023-12-29T07:28:38;99572.69;;;11.02;72.58
83424;BME280;73355;49.044;8.686;2023-12-29T07:31:04;99578.94;;;10.99;72.79
83424;BME280;73355;49.044;8.686;2023-12-29T07:33:30;99581.66;;;10.99;72.83
83424;BME280;73355;49.044;8.686;2023-12-29T07:35:55;99583.19;;;11.04;72.79
83424;BME280;73355;49.044;8.686;2023-12-29T07:38:21;99584.66;;;11.08;72.65
83424;BME280;73355;49.044;8.686;2023-12-29T07:40:46;99576.50;;;11.08;72.67
83424;BME280;73355;49.044;8.686;2023-12-29T07:43:13;99585.06;;;11.07;72.62
83424;BME280;73355;49.044;8.686;2023-12-29T07:45:38;99583.53;;;11.06;72.74
83424;BME280;73355;49.044;8.686;2023-12-29T07:48:04;99581.16;;;11.08;72.91
83424;BME280;73355;49.044;8.686;2023-12-29T07:50:29;99576.88;;;11.10;72.94
83424;BME280;73355;49.044;8.686;2023-12-29T07:52:55;99580.41;;;11.07;72.77
83424;BME280;73355;49.044;8.686;2023-12-29T07:55:20;99592.84;;;11.08;73.06
83424;BME280;73355;49.044;8.686;2023-12-29T07:57:46;99587.56;;;11.25;72.76
83424;BME280;73355;49.044;8.686;2023-12-29T08:00:13;99587.59;;;11.21;72.24
83424;BME280;73355;49.044;8.686;2023-12-29T08:02:39;99598.97;;;11.16;72.76
83424;BME280;73355;49.044;8.686;2023-12-29T08:05:05;99591.53;;;11.16;72.63
83424;BME280;73355;49.044;8.686;2023-12-29T08:07:30;99603.66;;;11.15;73.21
83424;BME280;73355;49.044;8.686;2023-12-29T08:09:55;99603.28;;;11.13;73.27
83424;BME280;73355;49.044;8.686;2023-12-29T08:12:21;99603.22;;;11.17;73.37
83424;BME280;73355;49.044;8.686;2023-12-29T08:14:46;99607.09;;;11.19;73.27
83424;BME280;73355;49.044;8.686;2023-12-29T08:17:11;99596.59;;;11.18;73.35
83424;BME280;73355;49.044;8.686;2023-12-29T08:19:37;99605.84;;;11.24;73.16
83424;BME280;73355;49.044;8.686;2023-12-29T08:22:03;99601.94;;;11.25;72.85
83424;BME280;73355;49.044;8.686;2023-12-29T08:24:28;99600.41;;;11.24;72.92
83424;BME280;73355;49.044;8.686;2023-12-29T08:26:53;99611.34;;;11.21;72.49
83424;BME280;73355;49.044;8.686;2023-12-29T08:29:19;99608.47;;;11.31;72.70
83424;BME280;73355;49.044;8.686;2023-12-29T08:31:44;99621.25;;;11.38;72.03
83424;BME280;73355;49.044;8.686;2023-12-29T08:34:10;99616.25;;;11.33;72.02
83424;BME280;73355;49.044;8.686;2023-12-29T08:36:35;99619.31;;;11.35;72.11
83424;BME280;73355;49.044;8.686;2023-12-29T08:39:01;99620.16;;;11.32;72.04
83424;BME280;73355;49.044;8.686;2023-12-29T08:41:27;99625.94;;;11.34;72.11
83424;BME280;73355;49.044;8.686;2023-12-29T08:43:52;99636.34;;;11.42;72.18
83424;BME280;73355;49.044;8.686;2023-12-29T08:46:18;99625.38;;;11.46;71.94
83424;BME280;73355;49.044;8.686;2023-12-29T08:48:43;99639.69;;;11.53;71.12
83424;BME280;73355;49.044;8.686;2023-12-29T08:51:09;99637.38;;;11.52;71.00
83424;BME280;73355;49.044;8.686;2023-12-29T08:53:34;99634.34;;;11.46;71.06
83424;BME280;73355;49.044;8.686;2023-12-29T08:56:01;99637.84;;;11.47;71.24
83424;BME280;73355;49.044;8.686;2023-12-29T08:58:27;99637.34;;;11.55;70.75
83424;BME280;73355;49.044;8.686;2023-12-29T09:00:53;99626.44;;;11.55;70.89
83424;BME280;73355;49.044;8.686;2023-12-29T09:03:18;99626.75;;;11.61;70.99
83424;BME280;73355;49.044;8.686;2023-12-29T09:05:44;99629.41;;;11.65;70.58
83424;BME280;73355;49.044;8.686;2023-12-29T09:08:09;99629.72;;;11.70;70.85
83424;BME280;73355;49.044;8.686;2023-12-29T09:10:34;99638.22;;;11.76;70.42
83424;BME280;73355;49.044;8.686;2023-12-29T09:13:00;99633.56;;;11.73;70.51
83424;BME280;73355;49.044;8.686;2023-12-29T09:15:25;99635.81;;;11.81;69.97
83424;BME280;73355;49.044;8.686;2023-12-29T09:17:50;99633.47;;;11.80;69.90
83424;BME280;73355;49.044;8.686;2023-12-29T09:20:16;99635.81;;;11.81;70.03
83424;BME280;73355;49.044;8.686;2023-12-29T09:22:42;99641.19;;;11.85;69.94
83424;BME280;73355;49.044;8.686;2023-12-29T09:25:07;99642.81;;;11.82;69.93
83424;BME280;73355;49.044;8.686;2023-12-29T09:27:33;99634.25;;;11.80;70.08
83424;BME280;73355;49.044;8.686;2023-12-29T09:29:58;99641.25;;;11.81;70.12
83424;BME280;73355;49.044;8.686;2023-12-29T09:32:23;99632.91;;;11.92;70.33
83424;BME280;73355;49.044;8.686;2023-12-29T09:34:49;99652.00;;;11.92;70.00
83424;BME280;73355;49.044;8.686;2023-12-29T09:37:14;99646.06;;;11.97;69.84
83424;BME280;73355;49.044;8.686;2023-12-29T09:39:39;99644.41;;;12.03;69.62
83424;BME280;73355;49.044;8.686;2023-12-29T09:42:05;99642.53;;;12.00;69.42
83424;BME280;73355;49.044;8.686;2023-12-29T09:44:32;99635.22;;;11.93;69.19
83424;BME280;73355;49.044;8.686;2023-12-29T09:47:03;99638.31;;;11.95;69.63
83424;BME280;73355;49.044;8.686;2023-12-29T09:49:38;99641.88;;;12.16;69.24
83424;BME280;73355;49.044;8.686;2023-12-29T09:52:07;99641.63;;;12.30;68.77
83424;BME280;73355;49.044;8.686;2023-12-29T09:54:35;99638.72;;;12.40;68.70
83424;BME280;73355;49.044;8.686;2023-12-29T09:57:03;99642.03;;;12.52;68.23
83424;BME280;73355;49.044;8.686;2023-12-29T09:59:29;99633.63;;;12.62;67.92
83424;BME280;73355;49.044;8.686;2023-12-29T10:01:55;99624.44;;;12.72;67.50
83424;BME280;73355;49.044;8.686;2023-12-29T10:04:21;99633.28;;;12.80;66.69
83424;BME280;73355;49.044;8.686;2023-12-29T10:06:49;99635.09;;;12.87;66.49
83424;BME280;73355;49.044;8.686;2023-12-29T10:09:15;99623.69;;;12.92;65.47
83424;BME280;73355;49.044;8.686;2023-12-29T10:11:42;99622.78;;;12.98;65.11
83424;BME280;73355;49.044;8.686;2023-12-29T10:14:26;99618.34;;;13.04;65.49
83424;BME280;73355;49.044;8.686;2023-12-29T10:17:07;99607.22;;;13.15;65.37
83424;BME280;73355;49.044;8.686;2023-12-29T10:19:46;99617.50;;;13.07;65.08
83424;BME280;73355;49.044;8.686;2023-12-29T10:22:21;99608.97;;;12.86;64.99
83424;BME280;73355;49.044;8.686;2023-12-29T10:24:51;99605.88;;;12.83;65.00
83424;BME280;73355;49.044;8.686;2023-12-29T10:27:17;99595.09;;;12.76;64.79
83424;BME280;73355;49.044;8.686;2023-12-29T10:29:42;99604.22;;;12.70;64.51
83424;BME280;73355;49.044;8.686;2023-12-29T10:32:08;99596.31;;;12.75;64.98
83424;BME280;73355;49.044;8.686;2023-12-29T10:34:34;99591.50;;;12.99;64.46
83424;BME280;73355;49.044;8.686;2023-12-29T10:37:01;99587.25;;;13.18;64.18
83424;BME280;73355;49.044;8.686;2023-12-29T10:39:28;99574.63;;;13.24;63.80
83424;BME280;73355;49.044;8.686;2023-12-29T10:44:33;99570.94;;;13.14;63.48
83424;BME280;73355;49.044;8.686;2023-12-29T10:46:58;99564.34;;;13.12;63.67
83424;BME280;73355;49.044;8.686;2023-12-29T10:49:32;99570.97;;;13.11;63.35
83424;BME280;73355;49.044;8.686;2023-12-29T10:51:57;99578.84;;;13.09;63.71
83424;BME280;73355;49.044;8.686;2023-12-29T10:54:23;99561.31;;;13.26;62.56
83424;BME280;73355;49.044;8.686;2023-12-29T10:57:00;99559.81;;;13.21;62.30
83424;BME280;73355;49.044;8.686;2023-12-29T10:59:27;99563.31;;;13.22;62.01
83424;BME280;73355;49.044;8.686;2023-12-29T11:01:53;99558.56;;;13.26;61.04
83424;BME280;73355;49.044;8.686;2023-12-29T11:04:22;99539.34;;;13.30;60.43
83424;BME280;73355;49.044;8.686;2023-12-29T11:06:48;99538.94;;;13.47;60.27
83424;BME280;73355;49.044;8.686;2023-12-29T11:09:30;99542.75;;;13.50;59.96
83424;BME280;73355;49.044;8.686;2023-12-29T11:11:59;99551.66;;;13.54;60.17
83424;BME280;73355;49.044;8.686;2023-12-29T11:14:25;99543.88;;;13.69;59.42
83424;BME280;73355;49.044;8.686;2023-12-29T11:16:51;99544.75;;;13.65;58.28
83424;BME280;73355;49.044;8.686;2023-12-29T11:19:18;99549.97;;;13.60;58.49
83424;BME280;73355;49.044;8.686;2023-12-29T11:21:44;99547.28;;;13.73;59.34
83424;BME280;73355;49.044;8.686;2023-12-29T11:24:09;99553.09;;;13.91;58.76
83424;BME280;73355;49.044;8.686;2023-12-29T11:26:36;99548.72;;;13.93;58.30
83424;BME280;73355;49.044;8.686;2023-12-29T11:29:01;99545.28;;;14.05;57.36
83424;BME280;73355;49.044;8.686;2023-12-29T11:31:30;99536.13;;;14.12;57.31
83424;BME280;73355;49.044;8.686;2023-12-29T11:34:05;99545.09;;;14.13;57.20
83424;BME280;73355;49.044;8.686;2023-12-29T11:36:36;99547.50;;;14.11;57.16
83424;BME280;73355;49.044;8.686;2023-12-29T11:39:27;99534.38;;;14.18;56.45
83424;BME280;73355;49.044;8.686;2023-12-29T11:44:30;99531.63;;;14.18;56.32
83424;BME280;73355;49.044;8.686;2023-12-29T11:46:59;99525.06;;;14.16;56.04
83424;BME280;73355;49.044;8.686;2023-12-29T11:49:25;99541.97;;;14.27;55.30
83424;BME280;73355;49.044;8.686;2023-12-29T11:51:51;99525.50;;;14.14;55.64
83424;BME280;73355;49.044;8.686;2023-12-29T11:54:24;99522.56;;;14.21;55.96
83424;BME280;73355;49.044;8.686;2023-12-29T11:56:49;99521.28;;;14.26;55.76
83424;BME280;73355;49.044;8.686;2023-12-29T12:01:49;99516.22;;;13.95;56.29
83424;BME280;73355;49.044;8.686;2023-12-29T12:07:06;99530.81;;;13.60;57.06
83424;BME280;73355;49.044;8.686;2023-12-29T12:09:33;99517.41;;;13.49;57.38
83424;BME280;73355;49.044;8.686;2023-12-29T12:12:03;99517.56;;;13.42;57.96
83424;BME280;73355;49.044;8.686;2023-12-29T12:14:51;99520.97;;;13.46;57.93
83424;BME280;73355;49.044;8.686;2023-12-29T12:17:29;99514.56;;;13.37;58.27
83424;BME280;73355;49.044;8.686;2023-12-29T12:20:07;99521.66;;;13.34;58.89
83424;BME280;73355;49.044;8.686;2023-12-29T12:22:36;99515.00;;;13.35;59.25
83424;BME280;73355;49.044;8.686;2023-12-29T12:25:02;99503.38;;;13.31;59.47
83424;BME280;73355;49.044;8.686;2023-12-29T12:27:29;99508.09;;;13.31;59.06
83424;BME280;73355;49.044;8.686;2023-12-29T12:29:56;99506.88;;;13.15;59.80
83424;BME280;73355;49.044;8.686;2023-12-29T12:32:25;99515.97;;;13.09;60.37
83424;BME280;73355;49.044;8.686;2023-12-29T12:34:51;99511.63;;;13.11;60.71
83424;BME280;73355;49.044;8.686;2023-12-29T12:37:27;99522.94;;;13.13;60.38
83424;BME280;73355;49.044;8.686;2023-12-29T12:39:53;99518.66;;;13.12;60.62
83424;BME280;73355;49.044;8.686;2023-12-29T12:42:19;99514.78;;;13.10;60.75
83424;BME280;73355;49.044;8.686;2023-12-29T12:44:56;99509.47;;;13.03;61.50
83424;BME280;73355;49.044;8.686;2023-12-29T12:47:44;99504.34;;;13.05;61.43
83424;BME280;73355;49.044;8.686;2023-12-29T12:50:11;99498.19;;;13.01;61.53
83424;BME280;73355;49.044;8.686;2023-12-29T12:52:37;99508.34;;;13.00;62.02
83424;BME280;73355;49.044;8.686;2023-12-29T12:55:04;99500.56;;;12.99;62.05
83424;BME280;73355;49.044;8.686;2023-12-29T12:57:30;99507.94;;;13.02;61.74
83424;BME280;73355;49.044;8.686;2023-12-29T12:59:56;99518.19;;;12.98;62.16
83424;BME280;73355;49.044;8.686;2023-12-29T13:02:22;99502.97;;;12.97;62.14
83424;BME280;73355;49.044;8.686;2023-12-29T13:04:48;99503.31;;;12.99;61.95
83424;BME280;73355;49.044;8.686;2023-12-29T13:07:17;99509.47;;;13.03;62.13
83424;BME280;73355;49.044;8.686;2023-12-29T13:09:46;99515.00;;;12.99;62.03